createdAt,value
2023-03-26T00:02:07.157Z,28.51
2023-03-26T00:06:07.092Z,28.50
2023-03-26T00:10:07.135Z,28.52
2023-03-26T00:14:07.354Z,28.50
2023-03-26T00:18:07.245Z,28.52
2023-03-26T00:22:07.227Z,28.50
2023-03-26T00:26:07.271Z,28.51
2023-03-26T00:30:07.366Z,28.54
2023-03-26T00:34:07.346Z,28.53
2023-03-26T00:38:07.443Z,28.51
2023-03-26T00:42:07.477Z,28.57
2023-03-26T00:46:07.575Z,28.56
2023-03-26T00:50:07.609Z,28.57
2023-03-26T00:54:07.733Z,28.59
2023-03-26T00:58:07.790Z,28.58
2023-03-26T01:02:07.913Z,28.61
2023-03-26T01:06:07.938Z,28.61
2023-03-26T01:10:08.050Z,28.60
2023-03-26T01:14:08.106Z,28.60
2023-03-26T01:18:08.102Z,28.60
2023-03-26T01:22:08.207Z,28.62
2023-03-26T01:26:08.241Z,28.65
2023-03-26T01:30:08.303Z,28.64
2023-03-26T01:34:08.400Z,28.66
2023-03-26T01:38:08.393Z,28.66
2023-03-26T01:42:08.477Z,28.67
2023-03-26T01:46:08.622Z,28.68
2023-03-26T01:50:08.695Z,28.67
2023-03-26T01:54:08.728Z,28.68
2023-03-26T01:58:08.900Z,28.70
2023-03-26T02:02:08.988Z,28.68
2023-03-26T02:06:09.054Z,28.68
2023-03-26T02:10:09.099Z,28.71
2023-03-26T02:14:09.166Z,28.73
2023-03-26T02:18:09.224Z,28.73
2023-03-26T02:22:09.320Z,28.73
2023-03-26T02:26:09.463Z,28.72
2023-03-26T02:30:09.491Z,28.74
2023-03-26T02:34:09.641Z,28.75
2023-03-26T02:38:09.742Z,28.73
2023-03-26T02:42:09.880Z,28.73
2023-03-26T02:46:10.013Z,28.75
2023-03-26T02:50:10.139Z,28.77
2023-03-26T02:54:10.262Z,28.77
2023-03-26T02:58:10.356Z,28.77
2023-03-26T03:02:10.490Z,28.79
2023-03-26T03:06:10.672Z,28.79
2023-03-26T03:10:10.789Z,28.81
2023-03-26T03:14:10.913Z,28.81
2023-03-26T03:18:11.002Z,28.78
2023-03-26T03:22:11.202Z,28.78
2023-03-26T03:26:11.305Z,28.82
2023-03-26T03:30:11.428Z,28.82
2023-03-26T03:34:11.587Z,28.85
2023-03-26T03:38:11.739Z,28.85
2023-03-26T03:42:11.861Z,28.87
2023-03-26T03:46:12.055Z,28.85
2023-03-26T03:50:12.156Z,28.87
2023-03-26T03:54:12.344Z,28.86
2023-03-26T03:58:12.483Z,28.89
2023-03-26T04:02:12.612Z,28.89
2023-03-26T04:06:12.796Z,28.89
2023-03-26T04:10:13.053Z,28.91
2023-03-26T04:14:13.106Z,28.94
2023-03-26T04:18:13.181Z,28.93
2023-03-26T04:22:13.364Z,28.91
2023-03-26T04:26:13.543Z,28.93
2023-03-26T04:30:13.608Z,28.94
2023-03-26T04:34:13.787Z,28.93
2023-03-26T04:38:13.983Z,28.95
2023-03-26T04:42:14.077Z,28.95
2023-03-26T04:46:14.296Z,28.97
2023-03-26T04:50:14.373Z,28.97
2023-03-26T04:54:14.498Z,28.95
2023-03-26T04:58:14.626Z,28.98
2023-03-26T05:02:14.757Z,28.98
2023-03-26T05:06:14.881Z,28.96
2023-03-26T05:10:15.091Z,28.97
2023-03-26T05:14:15.166Z,28.98
2023-03-26T05:18:15.296Z,28.98
2023-03-26T05:22:15.487Z,29.00
2023-03-26T05:26:15.579Z,28.99
2023-03-26T05:30:15.823Z,29.00
2023-03-26T05:34:15.894Z,29.02
2023-03-26T05:38:16.027Z,29.03
2023-03-26T05:42:16.155Z,29.02
2023-03-26T05:46:16.355Z,29.05
2023-03-26T05:50:16.440Z,29.08
2023-03-26T05:54:16.590Z,29.07
2023-03-26T05:58:16.778Z,29.05
2023-03-26T06:02:16.891Z,29.08
2023-03-26T06:06:17.149Z,29.09
2023-03-26T06:10:18.300Z,29.11
2023-03-26T06:14:17.279Z,29.12
2023-03-26T06:18:17.435Z,29.09
2023-03-26T06:22:17.554Z,29.13
2023-03-26T06:26:17.699Z,29.15
2023-03-26T06:30:17.807Z,29.15
2023-03-26T06:34:17.990Z,29.15
2023-03-26T06:38:18.077Z,29.15
2023-03-26T06:42:18.207Z,29.16
2023-03-26T06:46:18.433Z,29.16
2023-03-26T06:50:18.453Z,29.16
2023-03-26T06:54:18.589Z,29.21
2023-03-26T06:58:18.642Z,29.19
2023-03-26T07:02:18.902Z,29.21
2023-03-26T07:06:18.898Z,29.22
2023-03-26T07:10:19.025Z,29.23
2023-03-26T07:14:19.132Z,29.22
2023-03-26T07:18:19.270Z,29.17
2023-03-26T07:22:19.421Z,29.17
2023-03-26T07:26:19.522Z,29.12
2023-03-26T07:30:19.656Z,29.12
2023-03-26T07:34:19.778Z,29.14
2023-03-26T07:38:19.923Z,29.16
2023-03-26T07:42:20.044Z,29.17
2023-03-26T07:46:20.231Z,29.18
2023-03-26T07:50:20.492Z,29.17
2023-03-26T07:54:20.377Z,29.15
2023-03-26T07:58:20.501Z,29.15
2023-03-26T08:02:20.613Z,29.11
2023-03-26T08:06:20.653Z,29.09
2023-03-26T08:10:20.801Z,29.12
2023-03-26T08:14:20.823Z,29.19
2023-03-26T08:18:20.832Z,29.22
2023-03-26T08:22:20.922Z,29.20
2023-03-26T08:26:21.004Z,29.17
2023-03-26T08:30:21.036Z,29.14
2023-03-26T08:34:21.103Z,29.15
2023-03-26T08:38:21.131Z,29.19
2023-03-26T08:42:21.170Z,29.19
2023-03-26T08:46:21.217Z,29.19
2023-03-26T08:50:21.171Z,29.19
2023-03-26T08:54:21.189Z,29.16
2023-03-26T08:58:21.236Z,29.16
2023-03-26T09:02:21.191Z,29.15
2023-03-26T09:06:21.155Z,29.20
2023-03-26T09:10:21.146Z,29.20
2023-03-26T09:14:21.185Z,29.20
2023-03-26T09:18:21.567Z,29.19
2023-03-26T09:22:21.122Z,29.18
2023-03-26T09:26:21.125Z,29.19
2023-03-26T09:30:21.183Z,29.19
2023-03-26T09:34:21.114Z,29.18
2023-03-26T09:38:21.083Z,29.17
2023-03-26T09:42:21.130Z,29.18
2023-03-26T09:46:21.118Z,29.18
2023-03-26T09:50:21.052Z,29.18
2023-03-26T09:54:21.002Z,29.18
2023-03-26T09:58:21.125Z,29.18
2023-03-26T10:02:20.987Z,29.17
2023-03-26T10:06:21.068Z,29.17
2023-03-26T10:10:21.104Z,29.16
2023-03-26T10:14:21.121Z,29.15
2023-03-26T10:18:27.314Z,29.17
2023-03-26T10:22:22.158Z,29.20
2023-03-26T10:26:21.043Z,29.20
2023-03-26T10:30:21.178Z,29.19
2023-03-26T10:34:28.833Z,29.20
2023-03-26T10:38:22.156Z,29.24
2023-03-26T10:42:21.106Z,29.24
2023-03-26T10:46:21.161Z,29.23
2023-03-26T10:50:22.871Z,29.26
2023-03-26T10:54:21.143Z,29.26
2023-03-26T10:58:21.123Z,29.26
2023-03-26T11:02:21.057Z,29.26
2023-03-26T11:06:22.045Z,29.25
2023-03-26T11:10:21.098Z,29.25
2023-03-26T11:14:31.771Z,29.25
2023-03-26T11:18:22.309Z,29.24
2023-03-26T11:22:21.161Z,29.24
2023-03-26T11:26:21.272Z,29.24
2023-03-26T11:30:21.252Z,29.24
2023-03-26T11:34:21.270Z,29.23
2023-03-26T11:38:21.378Z,29.19
2023-03-26T11:42:21.580Z,29.21
2023-03-26T11:46:21.724Z,29.18
2023-03-26T11:50:21.971Z,29.16
2023-03-26T11:54:21.915Z,29.21
2023-03-26T11:58:21.945Z,29.21
2023-03-26T12:02:22.842Z,29.22
2023-03-26T12:06:21.828Z,29.28
2023-03-26T12:10:21.809Z,29.28
2023-03-26T12:14:21.755Z,29.31
2023-03-26T12:18:21.664Z,29.34
2023-03-26T12:22:21.668Z,29.36
2023-03-26T12:26:21.795Z,29.39
2023-03-26T12:30:21.976Z,29.38
2023-03-26T12:34:22.102Z,29.42
2023-03-26T12:38:22.229Z,29.46
2023-03-26T12:44:43.489Z,29.48
2023-03-26T12:47:54.858Z,29.49
2023-03-26T12:50:34.554Z,29.50
2023-03-26T12:54:23.218Z,29.53
2023-03-26T12:58:22.220Z,29.55
2023-03-26T13:02:23.018Z,29.56
2023-03-26T13:06:22.114Z,29.56
2023-03-26T13:10:22.143Z,29.56
2023-03-26T13:14:22.039Z,29.61
2023-03-26T13:18:21.992Z,29.60
2023-03-26T13:22:22.149Z,29.59
2023-03-26T13:26:21.947Z,29.62
2023-03-26T13:30:21.951Z,29.65
2023-03-26T13:34:21.858Z,29.68
2023-03-26T13:38:21.824Z,29.67
2023-03-26T13:42:21.817Z,29.67
2023-03-26T13:46:21.778Z,29.68
2023-03-26T13:50:21.760Z,29.68
2023-03-26T13:54:22.659Z,29.68
2023-03-26T13:58:21.722Z,29.69
2023-03-26T14:02:21.675Z,29.70
2023-03-26T14:06:21.567Z,29.71
2023-03-26T14:10:21.528Z,29.72
2023-03-26T14:14:21.479Z,29.70
2023-03-26T14:18:21.456Z,29.75
2023-03-26T14:22:21.408Z,29.73
2023-03-26T14:26:21.488Z,29.75
2023-03-26T14:30:21.345Z,29.76
2023-03-26T14:34:21.349Z,29.78
2023-03-26T14:38:21.293Z,29.79
2023-03-26T14:42:21.263Z,29.82
2023-03-26T14:46:21.296Z,29.80
2023-03-26T14:50:21.187Z,29.83
2023-03-26T14:54:21.181Z,29.85
2023-03-26T14:58:21.134Z,29.85
2023-03-26T15:02:21.271Z,29.88
2023-03-26T15:06:21.205Z,29.90
2023-03-26T15:10:21.213Z,29.90
2023-03-26T15:14:21.233Z,29.92
2023-03-26T15:18:21.275Z,29.96
2023-03-26T15:22:21.361Z,29.95
2023-03-26T15:26:21.399Z,29.97
2023-03-26T15:30:21.419Z,30.00
2023-03-26T15:34:21.536Z,29.98
2023-03-26T15:38:21.479Z,30.01
2023-03-26T15:42:21.564Z,29.98
2023-03-26T15:46:21.589Z,30.01
2023-03-26T15:50:21.664Z,30.00
2023-03-26T15:54:21.687Z,30.00
2023-03-26T15:58:21.745Z,30.00
2023-03-26T16:02:21.998Z,29.98
2023-03-26T16:06:21.937Z,30.00
2023-03-26T16:10:21.991Z,30.02
2023-03-26T16:14:23.601Z,30.02
2023-03-26T16:18:22.131Z,30.03
2023-03-26T16:22:22.200Z,30.00
2023-03-26T16:26:22.324Z,30.02
2023-03-26T16:30:22.370Z,30.02
2023-03-26T16:34:22.454Z,30.02
2023-03-26T16:38:22.519Z,30.04
2023-03-26T16:42:23.093Z,30.03
2023-03-26T16:46:22.759Z,30.02
2023-03-26T16:50:22.782Z,30.03
2023-03-26T16:54:22.839Z,30.02
2023-03-26T16:58:22.942Z,30.01
2023-03-26T17:02:23.076Z,30.02
2023-03-26T17:06:23.140Z,30.04
2023-03-26T17:10:23.214Z,30.05
2023-03-26T17:14:23.340Z,30.04
2023-03-26T17:18:23.578Z,30.06
2023-03-26T17:22:23.584Z,30.06
2023-03-26T17:26:23.662Z,30.05
2023-03-26T17:30:23.874Z,30.07
2023-03-26T17:34:23.922Z,30.07
2023-03-26T17:38:24.046Z,30.07
2023-03-26T17:42:24.167Z,30.07
2023-03-26T17:46:24.450Z,30.07
2023-03-26T17:50:24.504Z,30.05
2023-03-26T17:54:24.578Z,30.07
2023-03-26T17:58:24.691Z,30.06
2023-03-26T18:02:24.932Z,30.06
2023-03-26T18:06:24.907Z,30.07
2023-03-26T18:10:25.063Z,30.05
2023-03-26T18:14:25.128Z,30.04
2023-03-26T18:18:25.773Z,30.03
2023-03-26T18:22:25.799Z,30.04
2023-03-26T18:26:25.518Z,30.03
2023-03-26T18:30:25.636Z,30.03
2023-03-26T18:34:25.737Z,30.03
2023-03-26T18:38:36.750Z,30.03
2023-03-26T18:42:26.787Z,30.03
2023-03-26T18:46:25.938Z,30.01
2023-03-26T18:50:25.769Z,30.01
2023-03-26T18:54:25.888Z,30.02
2023-03-26T18:58:26.006Z,30.02
2023-03-26T19:02:26.271Z,30.01
2023-03-26T19:06:26.259Z,30.03
2023-03-26T19:10:26.404Z,30.04
2023-03-26T19:14:26.763Z,30.04
2023-03-26T19:18:26.625Z,30.02
2023-03-26T19:22:26.726Z,30.02
2023-03-26T19:26:26.847Z,30.04
2023-03-26T19:30:27.021Z,30.01
2023-03-26T19:34:27.180Z,30.03
2023-03-26T19:38:27.285Z,30.04
2023-03-26T19:42:27.404Z,30.01
2023-03-26T19:46:28.501Z,30.02
2023-03-26T19:50:27.383Z,30.02
2023-03-26T19:54:27.373Z,30.03
2023-03-26T19:58:27.526Z,30.00
2023-03-26T20:02:27.739Z,30.02
2023-03-26T20:06:37.776Z,30.01
2023-03-26T20:10:28.740Z,30.03
2023-03-26T20:14:27.674Z,30.02
2023-03-26T20:18:27.649Z,30.03
2023-03-26T20:22:27.785Z,30.02
2023-03-26T20:26:27.924Z,30.03
2023-03-26T20:30:37.257Z,30.04
2023-03-26T20:34:28.993Z,30.01
2023-03-26T20:38:39.043Z,30.03
2023-03-26T20:42:28.945Z,30.01
2023-03-26T20:46:31.602Z,30.00
2023-03-26T20:50:28.725Z,30.04
2023-03-26T20:54:27.853Z,30.03
2023-03-26T20:58:31.130Z,30.03
2023-03-26T21:02:27.859Z,30.00
2023-03-26T21:06:27.711Z,30.01
2023-03-26T21:10:27.688Z,30.01
2023-03-26T21:14:27.683Z,30.01
2023-03-26T21:18:27.711Z,30.02
2023-03-26T21:22:27.938Z,30.03
2023-03-26T21:26:28.057Z,30.04
2023-03-26T21:30:28.203Z,30.02
2023-03-26T21:34:28.353Z,30.03
2023-03-26T21:38:28.502Z,30.02
2023-03-26T21:42:28.631Z,30.05
2023-03-26T21:46:29.080Z,30.05
2023-03-26T21:50:29.037Z,30.04
2023-03-26T21:54:29.216Z,30.05
2023-03-26T21:58:29.458Z,30.05
2023-03-26T22:02:29.609Z,30.04
2023-03-26T22:06:29.812Z,30.07
2023-03-26T22:10:29.982Z,30.03
2023-03-26T22:14:30.177Z,30.02
2023-03-26T22:18:30.383Z,30.06
2023-03-26T22:22:30.639Z,30.03
2023-03-26T22:26:30.562Z,30.03
2023-03-26T22:30:30.556Z,30.05
2023-03-26T22:34:30.515Z,30.05
2023-03-26T22:38:30.854Z,30.04
2023-03-26T22:42:30.459Z,30.04
2023-03-26T22:46:30.442Z,30.05
2023-03-26T22:50:30.406Z,30.07
2023-03-26T22:54:30.477Z,30.07
2023-03-26T22:58:30.336Z,30.05
2023-03-26T23:02:30.324Z,30.06
2023-03-26T23:06:30.422Z,30.05
2023-03-26T23:10:30.830Z,30.05
2023-03-26T23:14:30.837Z,30.06
2023-03-26T23:18:31.081Z,30.06
2023-03-26T23:22:31.051Z,30.06
2023-03-26T23:26:37.733Z,30.04
2023-03-26T23:30:31.918Z,30.05
2023-03-26T23:34:30.931Z,30.07
2023-03-26T23:38:43.870Z,30.07
2023-03-26T23:42:31.870Z,30.07
2023-03-26T23:46:31.250Z,30.06
2023-03-26T23:50:30.875Z,30.06
2023-03-26T23:54:30.884Z,30.08
2023-03-26T23:58:30.776Z,30.06
